sensor_id;sensor_type;location;lat;lon;timestamp;P1;durP1;ratioP1;P2;durP2;ratioP2
1831;SDS011;1680;48.106;11.708;2023-11-19T00:00:06;1.17;;;1.10;;
1831;SDS011;1680;48.106;11.708;2023-11-19T00:02:37;0.90;;;0.90;;
1831;SDS011;1680;48.106;11.708;2023-11-19T00:05:06;0.90;;;0.90;;
1831;SDS011;1680;48.106;11.708;2023-11-19T00:07:35;1.00;;;1.00;;
1831;SDS011;1680;48.106;11.708;2023-11-19T00:10:02;1.17;;;1.00;;
1831;SDS011;1680;48.106;11.708;2023-11-19T00:12:32;0.90;;;0.90;;
1831;SDS011;1680;48.106;11.708;2023-11-19T00:14:59;0.97;;;0.97;;
1831;SDS011;1680;48.106;11.708;2023-11-19T00:17:25;1.67;;;0.90;;
1831;SDS011;1680;48.106;11.708;2023-11-19T00:19:52;0.97;;;0.97;;
1831;SDS011;1680;48.106;11.708;2023-11-19T00:22:21;0.97;;;0.90;;
1831;SDS011;1680;48.106;11.708;2023-11-19T00:24:48;1.30;;;1.20;;
1831;SDS011;1680;48.106;11.708;2023-11-19T00:27:15;1.23;;;1.13;;
1831;SDS011;1680;48.106;11.708;2023-11-19T00:29:42;1.03;;;1.00;;
1831;SDS011;1680;48.106;11.708;2023-11-19T00:32:11;1.30;;;1.20;;
1831;SDS011;1680;48.106;11.708;2023-11-19T00:34:38;1.43;;;1.10;;
1831;SDS011;1680;48.106;11.708;2023-11-19T00:37:05;1.30;;;1.20;;
1831;SDS011;1680;48.106;11.708;2023-11-19T00:39:34;1.50;;;1.40;;
1831;SDS011;1680;48.106;11.708;2023-11-19T00:42:01;1.20;;;1.10;;
1831;SDS011;1680;48.106;11.708;2023-11-19T00:44:28;1.20;;;1.20;;
1831;SDS011;1680;48.106;11.708;2023-11-19T00:46:56;1.43;;;1.30;;
1831;SDS011;1680;48.106;11.708;2023-11-19T00:49:24;1.37;;;1.30;;
1831;SDS011;1680;48.106;11.708;2023-11-19T00:51:51;1.40;;;1.30;;
1831;SDS011;1680;48.106;11.708;2023-11-19T00:54:19;1.13;;;1.03;;
1831;SDS011;1680;48.106;11.708;2023-11-19T00:56:47;0.97;;;0.87;;
1831;SDS011;1680;48.106;11.708;2023-11-19T00:59:17;1.00;;;1.00;;
1831;SDS011;1680;48.106;11.708;2023-11-19T01:01:44;0.97;;;0.97;;
1831;SDS011;1680;48.106;11.708;2023-11-19T01:04:13;1.10;;;1.10;;
1831;SDS011;1680;48.106;11.708;2023-11-19T01:06:40;1.00;;;1.00;;
1831;SDS011;1680;48.106;11.708;2023-11-19T01:09:08;0.90;;;0.90;;
1831;SDS011;1680;48.106;11.708;2023-11-19T01:11:35;1.10;;;1.00;;
1831;SDS011;1680;48.106;11.708;2023-11-19T01:14:04;1.00;;;0.90;;
1831;SDS011;1680;48.106;11.708;2023-11-19T01:16:31;1.10;;;1.10;;
1831;SDS011;1680;48.106;11.708;2023-11-19T01:18:58;1.03;;;1.03;;
1831;SDS011;1680;48.106;11.708;2023-11-19T01:21:29;1.30;;;1.17;;
1831;SDS011;1680;48.106;11.708;2023-11-19T01:23:57;1.77;;;1.40;;
1831;SDS011;1680;48.106;11.708;2023-11-19T01:26:24;1.83;;;1.10;;
1831;SDS011;1680;48.106;11.708;2023-11-19T01:28:51;2.10;;;1.37;;
1831;SDS011;1680;48.106;11.708;2023-11-19T01:31:20;1.80;;;1.13;;
1831;SDS011;1680;48.106;11.708;2023-11-19T01:33:47;1.37;;;1.27;;
1831;SDS011;1680;48.106;11.708;2023-11-19T01:36:14;1.50;;;1.30;;
1831;SDS011;1680;48.106;11.708;2023-11-19T01:38:41;1.33;;;1.23;;
1831;SDS011;1680;48.106;11.708;2023-11-19T01:41:09;1.40;;;1.30;;
1831;SDS011;1680;48.106;11.708;2023-11-19T01:43:37;4.00;;;0.90;;
1831;SDS011;1680;48.106;11.708;2023-11-19T01:46:06;1.60;;;1.20;;
1831;SDS011;1680;48.106;11.708;2023-11-19T01:48:36;1.10;;;1.00;;
1831;SDS011;1680;48.106;11.708;2023-11-19T01:51:07;0.90;;;0.90;;
1831;SDS011;1680;48.106;11.708;2023-11-19T01:53:36;0.90;;;0.90;;
1831;SDS011;1680;48.106;11.708;2023-11-19T01:56:05;0.90;;;0.90;;
1831;SDS011;1680;48.106;11.708;2023-11-19T01:58:35;1.10;;;1.00;;
1831;SDS011;1680;48.106;11.708;2023-11-19T02:01:04;0.80;;;0.80;;
1831;SDS011;1680;48.106;11.708;2023-11-19T02:03:32;0.77;;;0.77;;
1831;SDS011;1680;48.106;11.708;2023-11-19T02:06:01;0.90;;;0.90;;
1831;SDS011;1680;48.106;11.708;2023-11-19T02:08:29;0.70;;;0.70;;
1831;SDS011;1680;48.106;11.708;2023-11-19T02:10:57;0.70;;;0.70;;
1831;SDS011;1680;48.106;11.708;2023-11-19T02:13:25;1.03;;;0.80;;
1831;SDS011;1680;48.106;11.708;2023-11-19T02:15:53;0.80;;;0.80;;
1831;SDS011;1680;48.106;11.708;2023-11-19T02:18:21;0.97;;;0.97;;
1831;SDS011;1680;48.106;11.708;2023-11-19T02:20:54;0.77;;;0.77;;
1831;SDS011;1680;48.106;11.708;2023-11-19T02:23:23;0.90;;;0.90;;
1831;SDS011;1680;48.106;11.708;2023-11-19T02:25:54;1.07;;;0.97;;
1831;SDS011;1680;48.106;11.708;2023-11-19T02:28:35;1.00;;;1.00;;
1831;SDS011;1680;48.106;11.708;2023-11-19T02:31:03;0.80;;;0.80;;
1831;SDS011;1680;48.106;11.708;2023-11-19T02:33:34;1.20;;;1.13;;
1831;SDS011;1680;48.106;11.708;2023-11-19T02:36:01;1.10;;;1.00;;
1831;SDS011;1680;48.106;11.708;2023-11-19T02:38:29;1.13;;;1.03;;
1831;SDS011;1680;48.106;11.708;2023-11-19T02:40:56;1.30;;;1.10;;
1831;SDS011;1680;48.106;11.708;2023-11-19T02:43:24;0.97;;;0.87;;
1831;SDS011;1680;48.106;11.708;2023-11-19T02:45:52;1.50;;;1.20;;
1831;SDS011;1680;48.106;11.708;2023-11-19T02:48:20;1.57;;;1.47;;
1831;SDS011;1680;48.106;11.708;2023-11-19T02:50:48;2.00;;;1.60;;
1831;SDS011;1680;48.106;11.708;2023-11-19T02:53:15;1.67;;;1.57;;
1831;SDS011;1680;48.106;11.708;2023-11-19T02:55:42;1.30;;;1.20;;
1831;SDS011;1680;48.106;11.708;2023-11-19T02:58:13;1.20;;;1.20;;
1831;SDS011;1680;48.106;11.708;2023-11-19T03:00:48;2.90;;;1.53;;
1831;SDS011;1680;48.106;11.708;2023-11-19T03:03:23;0.97;;;0.97;;
1831;SDS011;1680;48.106;11.708;2023-11-19T03:05:53;1.40;;;1.13;;
1831;SDS011;1680;48.106;11.708;2023-11-19T03:08:21;2.20;;;0.97;;
1831;SDS011;1680;48.106;11.708;2023-11-19T03:10:48;1.00;;;0.90;;
1831;SDS011;1680;48.106;11.708;2023-11-19T03:13:16;1.30;;;1.20;;
1831;SDS011;1680;48.106;11.708;2023-11-19T03:15:43;0.70;;;0.70;;
1831;SDS011;1680;48.106;11.708;2023-11-19T03:18:11;0.90;;;0.87;;
1831;SDS011;1680;48.106;11.708;2023-11-19T03:20:41;1.00;;;1.00;;
1831;SDS011;1680;48.106;11.708;2023-11-19T03:23:08;1.07;;;0.80;;
1831;SDS011;1680;48.106;11.708;2023-11-19T03:25:35;0.80;;;0.80;;
1831;SDS011;1680;48.106;11.708;2023-11-19T03:28:02;1.87;;;0.80;;
1831;SDS011;1680;48.106;11.708;2023-11-19T03:30:31;1.00;;;1.00;;
1831;SDS011;1680;48.106;11.708;2023-11-19T03:32:59;1.17;;;1.00;;
1831;SDS011;1680;48.106;11.708;2023-11-19T03:35:26;0.70;;;0.70;;
1831;SDS011;1680;48.106;11.708;2023-11-19T03:37:55;0.87;;;0.87;;
1831;SDS011;1680;48.106;11.708;2023-11-19T03:40:22;0.90;;;0.80;;
1831;SDS011;1680;48.106;11.708;2023-11-19T03:42:50;0.80;;;0.80;;
1831;SDS011;1680;48.106;11.708;2023-11-19T03:45:17;0.80;;;0.80;;
1831;SDS011;1680;48.106;11.708;2023-11-19T03:47:44;0.83;;;0.70;;
1831;SDS011;1680;48.106;11.708;2023-11-19T03:50:12;0.93;;;0.93;;
1831;SDS011;1680;48.106;11.708;2023-11-19T03:52:40;0.90;;;0.90;;
1831;SDS011;1680;48.106;11.708;2023-11-19T03:55:09;0.70;;;0.70;;
1831;SDS011;1680;48.106;11.708;2023-11-19T03:57:37;1.00;;;0.90;;
1831;SDS011;1680;48.106;11.708;2023-11-19T04:00:05;0.87;;;0.87;;
1831;SDS011;1680;48.106;11.708;2023-11-19T04:02:35;0.67;;;0.67;;
1831;SDS011;1680;48.106;11.708;2023-11-19T04:05:02;0.77;;;0.70;;
1831;SDS011;1680;48.106;11.708;2023-11-19T04:07:30;0.70;;;0.70;;
1831;SDS011;1680;48.106;11.708;2023-11-19T04:09:57;0.80;;;0.80;;
1831;SDS011;1680;48.106;11.708;2023-11-19T04:12:26;0.97;;;0.87;;
1831;SDS011;1680;48.106;11.708;2023-11-19T04:14:53;0.80;;;0.80;;
1831;SDS011;1680;48.106;11.708;2023-11-19T04:17:21;0.90;;;0.90;;
1831;SDS011;1680;48.106;11.708;2023-11-19T04:19:49;1.10;;;0.93;;
1831;SDS011;1680;48.106;11.708;2023-11-19T04:22:16;1.10;;;1.00;;
1831;SDS011;1680;48.106;11.708;2023-11-19T04:24:43;0.90;;;0.90;;
1831;SDS011;1680;48.106;11.708;2023-11-19T04:27:10;0.80;;;0.80;;
1831;SDS011;1680;48.106;11.708;2023-11-19T04:29:39;1.43;;;1.07;;
1831;SDS011;1680;48.106;11.708;2023-11-19T04:32:06;1.00;;;0.90;;
1831;SDS011;1680;48.106;11.708;2023-11-19T04:34:34;1.37;;;1.10;;
1831;SDS011;1680;48.106;11.708;2023-11-19T04:37:02;1.37;;;0.70;;
1831;SDS011;1680;48.106;11.708;2023-11-19T04:39:30;0.70;;;0.70;;
1831;SDS011;1680;48.106;11.708;2023-11-19T04:41:57;0.70;;;0.70;;
1831;SDS011;1680;48.106;11.708;2023-11-19T04:44:24;0.97;;;0.80;;
1831;SDS011;1680;48.106;11.708;2023-11-19T04:46:52;0.80;;;0.70;;
1831;SDS011;1680;48.106;11.708;2023-11-19T04:49:20;0.77;;;0.77;;
1831;SDS011;1680;48.106;11.708;2023-11-19T04:51:47;1.03;;;0.70;;
1831;SDS011;1680;48.106;11.708;2023-11-19T04:54:14;1.20;;;0.70;;
1831;SDS011;1680;48.106;11.708;2023-11-19T04:56:44;0.67;;;0.67;;
1831;SDS011;1680;48.106;11.708;2023-11-19T04:59:12;0.67;;;0.67;;
1831;SDS011;1680;48.106;11.708;2023-11-19T05:01:39;0.73;;;0.67;;
1831;SDS011;1680;48.106;11.708;2023-11-19T05:04:08;0.60;;;0.60;;
1831;SDS011;1680;48.106;11.708;2023-11-19T05:06:35;0.70;;;0.70;;
1831;SDS011;1680;48.106;11.708;2023-11-19T05:09:03;0.70;;;0.70;;
1831;SDS011;1680;48.106;11.708;2023-11-19T05:11:32;0.80;;;0.60;;
1831;SDS011;1680;48.106;11.708;2023-11-19T05:13:59;1.90;;;0.80;;
1831;SDS011;1680;48.106;11.708;2023-11-19T05:16:28;0.77;;;0.77;;
1831;SDS011;1680;48.106;11.708;2023-11-19T05:18:56;0.80;;;0.80;;
1831;SDS011;1680;48.106;11.708;2023-11-19T05:21:24;1.53;;;0.60;;
1831;SDS011;1680;48.106;11.708;2023-11-19T05:23:51;1.10;;;0.60;;
1831;SDS011;1680;48.106;11.708;2023-11-19T05:26:19;0.70;;;0.67;;
1831;SDS011;1680;48.106;11.708;2023-11-19T05:28:47;1.00;;;0.73;;
1831;SDS011;1680;48.106;11.708;2023-11-19T05:31:15;0.80;;;0.70;;
1831;SDS011;1680;48.106;11.708;2023-11-19T05:33:43;0.73;;;0.70;;
1831;SDS011;1680;48.106;11.708;2023-11-19T05:36:11;0.60;;;0.50;;
1831;SDS011;1680;48.106;11.708;2023-11-19T05:38:40;0.70;;;0.70;;
1831;SDS011;1680;48.106;11.708;2023-11-19T05:41:07;4.23;;;0.70;;
1831;SDS011;1680;48.106;11.708;2023-11-19T05:43:34;0.83;;;0.83;;
1831;SDS011;1680;48.106;11.708;2023-11-19T05:46:02;0.80;;;0.80;;
1831;SDS011;1680;48.106;11.708;2023-11-19T05:48:30;1.13;;;0.70;;
1831;SDS011;1680;48.106;11.708;2023-11-19T05:50:57;1.00;;;0.67;;
1831;SDS011;1680;48.106;11.708;2023-11-19T05:53:25;1.07;;;0.90;;
1831;SDS011;1680;48.106;11.708;2023-11-19T05:55:53;0.70;;;0.70;;
1831;SDS011;1680;48.106;11.708;2023-11-19T05:58:22;0.70;;;0.70;;
1831;SDS011;1680;48.106;11.708;2023-11-19T06:00:53;0.80;;;0.80;;
1831;SDS011;1680;48.106;11.708;2023-11-19T06:03:20;1.03;;;0.70;;
1831;SDS011;1680;48.106;11.708;2023-11-19T06:05:47;1.00;;;0.60;;
1831;SDS011;1680;48.106;11.708;2023-11-19T06:08:15;0.93;;;0.93;;
1831;SDS011;1680;48.106;11.708;2023-11-19T06:10:42;0.90;;;0.90;;
1831;SDS011;1680;48.106;11.708;2023-11-19T06:13:13;0.70;;;0.70;;
1831;SDS011;1680;48.106;11.708;2023-11-19T06:15:41;0.80;;;0.80;;
1831;SDS011;1680;48.106;11.708;2023-11-19T06:18:08;0.70;;;0.70;;
1831;SDS011;1680;48.106;11.708;2023-11-19T06:20:36;1.70;;;0.80;;
1831;SDS011;1680;48.106;11.708;2023-11-19T06:23:04;0.90;;;0.80;;
1831;SDS011;1680;48.106;11.708;2023-11-19T06:25:31;0.93;;;0.80;;
1831;SDS011;1680;48.106;11.708;2023-11-19T06:28:00;1.00;;;0.80;;
1831;SDS011;1680;48.106;11.708;2023-11-19T06:30:29;0.73;;;0.73;;
1831;SDS011;1680;48.106;11.708;2023-11-19T06:32:57;0.60;;;0.60;;
1831;SDS011;1680;48.106;11.708;2023-11-19T06:35:24;0.60;;;0.60;;
1831;SDS011;1680;48.106;11.708;2023-11-19T06:37:52;0.60;;;0.60;;
1831;SDS011;1680;48.106;11.708;2023-11-19T06:40:20;0.67;;;0.57;;
1831;SDS011;1680;48.106;11.708;2023-11-19T06:42:47;0.60;;;0.60;;
1831;SDS011;1680;48.106;11.708;2023-11-19T06:45:14;1.10;;;0.70;;
1831;SDS011;1680;48.106;11.708;2023-11-19T06:47:42;1.27;;;0.60;;
1831;SDS011;1680;48.106;11.708;2023-11-19T06:50:10;0.60;;;0.60;;
1831;SDS011;1680;48.106;11.708;2023-11-19T06:52:37;0.73;;;0.73;;
1831;SDS011;1680;48.106;11.708;2023-11-19T06:55:05;1.07;;;0.60;;
1831;SDS011;1680;48.106;11.708;2023-11-19T06:57:32;0.97;;;0.60;;
1831;SDS011;1680;48.106;11.708;2023-11-19T06:59:59;0.50;;;0.50;;
1831;SDS011;1680;48.106;11.708;2023-11-19T07:02:27;0.80;;;0.80;;
1831;SDS011;1680;48.106;11.708;2023-11-19T07:04:55;0.63;;;0.60;;
1831;SDS011;1680;48.106;11.708;2023-11-19T07:07:22;0.60;;;0.60;;
1831;SDS011;1680;48.106;11.708;2023-11-19T07:09:49;0.70;;;0.70;;
1831;SDS011;1680;48.106;11.708;2023-11-19T07:12:16;0.60;;;0.60;;
1831;SDS011;1680;48.106;11.708;2023-11-19T07:14:44;0.70;;;0.60;;
1831;SDS011;1680;48.106;11.708;2023-11-19T07:17:12;0.70;;;0.57;;
1831;SDS011;1680;48.106;11.708;2023-11-19T07:19:40;0.57;;;0.57;;
1831;SDS011;1680;48.106;11.708;2023-11-19T07:22:09;0.57;;;0.50;;
1831;SDS011;1680;48.106;11.708;2023-11-19T07:24:38;0.60;;;0.60;;
1831;SDS011;1680;48.106;11.708;2023-11-19T07:27:05;0.60;;;0.60;;
1831;SDS011;1680;48.106;11.708;2023-11-19T07:29:34;0.70;;;0.70;;
1831;SDS011;1680;48.106;11.708;2023-11-19T07:32:02;0.97;;;0.60;;
1831;SDS011;1680;48.106;11.708;2023-11-19T07:34:30;1.20;;;0.93;;
1831;SDS011;1680;48.106;11.708;2023-11-19T07:36:57;1.00;;;0.90;;
1831;SDS011;1680;48.106;11.708;2023-11-19T07:39:28;0.60;;;0.60;;
1831;SDS011;1680;48.106;11.708;2023-11-19T07:41:56;0.80;;;0.80;;
1831;SDS011;1680;48.106;11.708;2023-11-19T07:44:23;0.67;;;0.67;;
1831;SDS011;1680;48.106;11.708;2023-11-19T07:46:51;3.80;;;0.90;;
1831;SDS011;1680;48.106;11.708;2023-11-19T07:49:19;0.90;;;0.80;;
1831;SDS011;1680;48.106;11.708;2023-11-19T07:51:46;0.70;;;0.70;;
1831;SDS011;1680;48.106;11.708;2023-11-19T07:54:13;0.67;;;0.67;;
1831;SDS011;1680;48.106;11.708;2023-11-19T07:56:42;0.50;;;0.50;;
1831;SDS011;1680;48.106;11.708;2023-11-19T07:59:09;0.70;;;0.70;;
1831;SDS011;1680;48.106;11.708;2023-11-19T08:01:37;0.60;;;0.60;;
1831;SDS011;1680;48.106;11.708;2023-11-19T08:04:04;0.70;;;0.70;;
1831;SDS011;1680;48.106;11.708;2023-11-19T08:06:31;0.60;;;0.60;;
1831;SDS011;1680;48.106;11.708;2023-11-19T08:08:58;0.67;;;0.57;;
1831;SDS011;1680;48.106;11.708;2023-11-19T08:11:26;0.50;;;0.50;;
1831;SDS011;1680;48.106;11.708;2023-11-19T08:13:55;0.80;;;0.80;;
1831;SDS011;1680;48.106;11.708;2023-11-19T08:16:22;0.80;;;0.60;;
1831;SDS011;1680;48.106;11.708;2023-11-19T08:18:49;2.40;;;0.73;;
1831;SDS011;1680;48.106;11.708;2023-11-19T08:21:16;0.90;;;0.50;;
1831;SDS011;1680;48.106;11.708;2023-11-19T08:23:43;0.80;;;0.80;;
1831;SDS011;1680;48.106;11.708;2023-11-19T08:26:10;0.60;;;0.60;;
1831;SDS011;1680;48.106;11.708;2023-11-19T08:28:38;0.60;;;0.60;;
1831;SDS011;1680;48.106;11.708;2023-11-19T08:31:06;0.60;;;0.60;;
1831;SDS011;1680;48.106;11.708;2023-11-19T08:33:33;0.80;;;0.80;;
1831;SDS011;1680;48.106;11.708;2023-11-19T08:36:00;0.90;;;0.90;;
1831;SDS011;1680;48.106;11.708;2023-11-19T08:38:29;1.33;;;0.90;;
1831;SDS011;1680;48.106;11.708;2023-11-19T08:40:56;0.60;;;0.60;;
1831;SDS011;1680;48.106;11.708;2023-11-19T08:43:24;0.80;;;0.80;;
1831;SDS011;1680;48.106;11.708;2023-11-19T08:45:52;1.23;;;1.00;;
1831;SDS011;1680;48.106;11.708;2023-11-19T08:48:20;1.10;;;0.87;;
1831;SDS011;1680;48.106;11.708;2023-11-19T08:50:47;0.80;;;0.80;;
1831;SDS011;1680;48.106;11.708;2023-11-19T08:53:14;0.70;;;0.70;;
1831;SDS011;1680;48.106;11.708;2023-11-19T08:55:42;0.80;;;0.80;;
1831;SDS011;1680;48.106;11.708;2023-11-19T08:58:09;0.67;;;0.67;;
1831;SDS011;1680;48.106;11.708;2023-11-19T09:00:36;0.80;;;0.80;;
1831;SDS011;1680;48.106;11.708;2023-11-19T09:03:03;2.63;;;0.63;;
1831;SDS011;1680;48.106;11.708;2023-11-19T09:05:31;1.10;;;0.80;;
1831;SDS011;1680;48.106;11.708;2023-11-19T09:07:58;0.90;;;0.90;;
1831;SDS011;1680;48.106;11.708;2023-11-19T09:10:25;0.87;;;0.80;;
1831;SDS011;1680;48.106;11.708;2023-11-19T09:12:54;1.33;;;1.20;;
1831;SDS011;1680;48.106;11.708;2023-11-19T09:15:21;0.80;;;0.70;;
1831;SDS011;1680;48.106;11.708;2023-11-19T09:17:49;0.80;;;0.80;;
1831;SDS011;1680;48.106;11.708;2023-11-19T09:20:16;0.83;;;0.83;;
1831;SDS011;1680;48.106;11.708;2023-11-19T09:22:44;0.70;;;0.70;;
1831;SDS011;1680;48.106;11.708;2023-11-19T09:25:12;0.80;;;0.80;;
1831;SDS011;1680;48.106;11.708;2023-11-19T09:27:42;1.00;;;0.90;;
1831;SDS011;1680;48.106;11.708;2023-11-19T09:30:09;2.87;;;0.80;;
1831;SDS011;1680;48.106;11.708;2023-11-19T09:32:37;0.70;;;0.70;;
1831;SDS011;1680;48.106;11.708;2023-11-19T09:35:05;1.07;;;0.70;;
1831;SDS011;1680;48.106;11.708;2023-11-19T09:37:33;0.80;;;0.80;;
1831;SDS011;1680;48.106;11.708;2023-11-19T09:40:01;0.63;;;0.63;;
1831;SDS011;1680;48.106;11.708;2023-11-19T09:42:28;0.90;;;0.90;;
1831;SDS011;1680;48.106;11.708;2023-11-19T09:44:57;1.00;;;0.90;;
1831;SDS011;1680;48.106;11.708;2023-11-19T09:47:26;0.70;;;0.70;;
1831;SDS011;1680;48.106;11.708;2023-11-19T09:49:55;0.60;;;0.60;;
1831;SDS011;1680;48.106;11.708;2023-11-19T09:52:22;0.80;;;0.73;;
1831;SDS011;1680;48.106;11.708;2023-11-19T09:54:50;0.83;;;0.80;;
1831;SDS011;1680;48.106;11.708;2023-11-19T09:57:18;0.80;;;0.80;;
1831;SDS011;1680;48.106;11.708;2023-11-19T09:59:46;0.77;;;0.77;;
1831;SDS011;1680;48.106;11.708;2023-11-19T10:02:14;0.70;;;0.70;;
1831;SDS011;1680;48.106;11.708;2023-11-19T10:04:42;0.73;;;0.70;;
1831;SDS011;1680;48.106;11.708;2023-11-19T10:07:12;1.23;;;0.67;;
1831;SDS011;1680;48.106;11.708;2023-11-19T10:09:39;0.80;;;0.80;;
1831;SDS011;1680;48.106;11.708;2023-11-19T10:12:06;1.27;;;1.00;;
1831;SDS011;1680;48.106;11.708;2023-11-19T10:14:35;0.80;;;0.80;;
1831;SDS011;1680;48.106;11.708;2023-11-19T10:17:07;0.90;;;0.90;;
1831;SDS011;1680;48.106;11.708;2023-11-19T10:19:34;4.10;;;1.00;;
1831;SDS011;1680;48.106;11.708;2023-11-19T10:22:02;1.10;;;1.00;;
1831;SDS011;1680;48.106;11.708;2023-11-19T10:24:31;0.70;;;0.70;;
1831;SDS011;1680;48.106;11.708;2023-11-19T10:26:59;0.80;;;0.80;;
1831;SDS011;1680;48.106;11.708;2023-11-19T10:29:29;0.83;;;0.83;;
1831;SDS011;1680;48.106;11.708;2023-11-19T10:31:57;1.40;;;1.30;;
1831;SDS011;1680;48.106;11.708;2023-11-19T10:34:25;1.83;;;1.00;;
1831;SDS011;1680;48.106;11.708;2023-11-19T10:36:54;1.40;;;0.93;;
1831;SDS011;1680;48.106;11.708;2023-11-19T10:39:22;1.47;;;0.90;;
1831;SDS011;1680;48.106;11.708;2023-11-19T10:41:49;1.13;;;1.10;;
1831;SDS011;1680;48.106;11.708;2023-11-19T10:47:09;0.80;;;0.77;;
1831;SDS011;1680;48.106;11.708;2023-11-19T10:49:38;0.90;;;0.90;;
1831;SDS011;1680;48.106;11.708;2023-11-19T10:52:06;0.90;;;0.90;;
1831;SDS011;1680;48.106;11.708;2023-11-19T10:54:35;0.67;;;0.67;;
1831;SDS011;1680;48.106;11.708;2023-11-19T10:57:06;1.07;;;0.80;;
1831;SDS011;1680;48.106;11.708;2023-11-19T10:59:36;1.43;;;0.80;;
1831;SDS011;1680;48.106;11.708;2023-11-19T11:02:06;0.70;;;0.70;;
1831;SDS011;1680;48.106;11.708;2023-11-19T11:04:39;0.83;;;0.80;;
1831;SDS011;1680;48.106;11.708;2023-11-19T11:07:07;1.00;;;1.00;;
1831;SDS011;1680;48.106;11.708;2023-11-19T11:09:35;3.03;;;1.03;;
1831;SDS011;1680;48.106;11.708;2023-11-19T11:12:03;0.73;;;0.73;;
1831;SDS011;1680;48.106;11.708;2023-11-19T11:14:32;0.90;;;0.80;;
1831;SDS011;1680;48.106;11.708;2023-11-19T11:17:05;0.80;;;0.60;;
1831;SDS011;1680;48.106;11.708;2023-11-19T11:19:34;1.00;;;0.80;;
1831;SDS011;1680;48.106;11.708;2023-11-19T11:22:04;0.80;;;0.77;;
1831;SDS011;1680;48.106;11.708;2023-11-19T11:30:19;1.03;;;0.93;;
1831;SDS011;1680;48.106;11.708;2023-11-19T11:32:58;1.10;;;1.00;;
1831;SDS011;1680;48.106;11.708;2023-11-19T11:35:35;0.97;;;0.87;;
1831;SDS011;1680;48.106;11.708;2023-11-19T11:38:13;1.13;;;1.03;;
1831;SDS011;1680;48.106;11.708;2023-11-19T11:40:42;0.80;;;0.80;;
1831;SDS011;1680;48.106;11.708;2023-11-19T11:46:09;3.00;;;2.20;;
1831;SDS011;1680;48.106;11.708;2023-11-19T11:48:56;1.13;;;1.10;;
1831;SDS011;1680;48.106;11.708;2023-11-19T11:54:31;0.90;;;0.90;;
1831;SDS011;1680;48.106;11.708;2023-11-19T11:57:05;0.87;;;0.87;;
1831;SDS011;1680;48.106;11.708;2023-11-19T11:59:45;2.20;;;1.00;;
1831;SDS011;1680;48.106;11.708;2023-11-19T12:02:13;1.63;;;1.43;;
1831;SDS011;1680;48.106;11.708;2023-11-19T12:04:42;1.80;;;1.70;;
1831;SDS011;1680;48.106;11.708;2023-11-19T12:07:11;1.43;;;1.13;;
1831;SDS011;1680;48.106;11.708;2023-11-19T12:09:41;0.87;;;0.87;;
1831;SDS011;1680;48.106;11.708;2023-11-19T12:12:20;1.27;;;0.60;;
1831;SDS011;1680;48.106;11.708;2023-11-19T12:15:01;0.70;;;0.70;;
1831;SDS011;1680;48.106;11.708;2023-11-19T12:17:36;0.60;;;0.60;;
1831;SDS011;1680;48.106;11.708;2023-11-19T12:20:09;1.10;;;0.87;;
1831;SDS011;1680;48.106;11.708;2023-11-19T12:22:37;1.57;;;1.00;;
1831;SDS011;1680;48.106;11.708;2023-11-19T12:25:07;0.63;;;0.63;;
1831;SDS011;1680;48.106;11.708;2023-11-19T12:27:35;1.00;;;0.80;;
1831;SDS011;1680;48.106;11.708;2023-11-19T12:30:04;0.80;;;0.80;;
1831;SDS011;1680;48.106;11.708;2023-11-19T12:32:38;0.70;;;0.60;;
1831;SDS011;1680;48.106;11.708;2023-11-19T12:35:07;0.90;;;0.90;;
1831;SDS011;1680;48.106;11.708;2023-11-19T12:37:39;0.93;;;0.80;;
1831;SDS011;1680;48.106;11.708;2023-11-19T12:40:13;1.20;;;0.93;;
1831;SDS011;1680;48.106;11.708;2023-11-19T12:42:42;0.80;;;0.77;;
1831;SDS011;1680;48.106;11.708;2023-11-19T12:45:10;0.80;;;0.70;;
1831;SDS011;1680;48.106;11.708;2023-11-19T12:47:37;1.60;;;0.80;;
1831;SDS011;1680;48.106;11.708;2023-11-19T12:50:06;1.03;;;0.97;;
1831;SDS011;1680;48.106;11.708;2023-11-19T12:52:34;0.80;;;0.70;;
1831;SDS011;1680;48.106;11.708;2023-11-19T12:55:01;1.30;;;0.70;;
1831;SDS011;1680;48.106;11.708;2023-11-19T12:57:37;1.00;;;0.70;;
1831;SDS011;1680;48.106;11.708;2023-11-19T13:00:05;0.80;;;0.80;;
1831;SDS011;1680;48.106;11.708;2023-11-19T13:02:45;0.70;;;0.70;;
1831;SDS011;1680;48.106;11.708;2023-11-19T13:05:20;0.80;;;0.80;;
1831;SDS011;1680;48.106;11.708;2023-11-19T13:07:57;0.80;;;0.80;;
1831;SDS011;1680;48.106;11.708;2023-11-19T13:10:25;1.10;;;1.00;;
1831;SDS011;1680;48.106;11.708;2023-11-19T13:13:04;0.90;;;0.80;;
1831;SDS011;1680;48.106;11.708;2023-11-19T13:15:32;0.90;;;0.90;;
1831;SDS011;1680;48.106;11.708;2023-11-19T13:17:59;1.70;;;1.20;;
1831;SDS011;1680;48.106;11.708;2023-11-19T13:20:27;1.50;;;1.10;;
1831;SDS011;1680;48.106;11.708;2023-11-19T13:22:55;1.53;;;1.27;;
1831;SDS011;1680;48.106;11.708;2023-11-19T13:25:22;1.30;;;1.20;;
1831;SDS011;1680;48.106;11.708;2023-11-19T13:27:50;1.07;;;0.97;;
1831;SDS011;1680;48.106;11.708;2023-11-19T13:30:18;1.17;;;1.07;;
1831;SDS011;1680;48.106;11.708;2023-11-19T13:32:47;1.50;;;1.40;;
1831;SDS011;1680;48.106;11.708;2023-11-19T13:35:14;1.90;;;1.50;;
1831;SDS011;1680;48.106;11.708;2023-11-19T13:37:42;1.60;;;1.33;;
1831;SDS011;1680;48.106;11.708;2023-11-19T13:40:09;1.47;;;1.37;;
1831;SDS011;1680;48.106;11.708;2023-11-19T13:42:39;1.60;;;1.13;;
1831;SDS011;1680;48.106;11.708;2023-11-19T13:45:07;1.37;;;1.27;;
1831;SDS011;1680;48.106;11.708;2023-11-19T13:47:38;3.57;;;0.90;;
1831;SDS011;1680;48.106;11.708;2023-11-19T13:50:08;0.97;;;0.97;;
1831;SDS011;1680;48.106;11.708;2023-11-19T13:52:36;0.97;;;0.97;;
1831;SDS011;1680;48.106;11.708;2023-11-19T13:55:05;1.40;;;1.20;;
1831;SDS011;1680;48.106;11.708;2023-11-19T13:57:33;0.80;;;0.80;;
1831;SDS011;1680;48.106;11.708;2023-11-19T14:00:01;1.07;;;0.97;;
1831;SDS011;1680;48.106;11.708;2023-11-19T14:02:30;1.10;;;1.00;;
1831;SDS011;1680;48.106;11.708;2023-11-19T14:04:59;2.23;;;1.60;;
1831;SDS011;1680;48.106;11.708;2023-11-19T14:07:26;5.40;;;2.50;;
1831;SDS011;1680;48.106;11.708;2023-11-19T14:10:02;1.47;;;1.37;;
1831;SDS011;1680;48.106;11.708;2023-11-19T14:12:34;1.40;;;1.30;;
1831;SDS011;1680;48.106;11.708;2023-11-19T14:15:02;2.83;;;1.27;;
1831;SDS011;1680;48.106;11.708;2023-11-19T14:17:31;1.47;;;1.10;;
1831;SDS011;1680;48.106;11.708;2023-11-19T14:20:00;3.20;;;1.37;;
1831;SDS011;1680;48.106;11.708;2023-11-19T14:22:27;1.20;;;1.10;;
1831;SDS011;1680;48.106;11.708;2023-11-19T14:24:55;1.10;;;1.00;;
1831;SDS011;1680;48.106;11.708;2023-11-19T14:27:22;0.93;;;0.93;;
1831;SDS011;1680;48.106;11.708;2023-11-19T14:29:50;1.00;;;1.00;;
1831;SDS011;1680;48.106;11.708;2023-11-19T14:32:17;1.17;;;0.90;;
1831;SDS011;1680;48.106;11.708;2023-11-19T14:34:44;1.00;;;0.90;;
1831;SDS011;1680;48.106;11.708;2023-11-19T14:37:12;2.30;;;1.00;;
1831;SDS011;1680;48.106;11.708;2023-11-19T14:39:39;1.10;;;0.87;;
1831;SDS011;1680;48.106;11.708;2023-11-19T14:42:09;0.90;;;0.90;;
1831;SDS011;1680;48.106;11.708;2023-11-19T14:44:36;0.97;;;0.90;;
1831;SDS011;1680;48.106;11.708;2023-11-19T14:47:03;1.47;;;1.03;;
1831;SDS011;1680;48.106;11.708;2023-11-19T14:49:31;1.20;;;1.10;;
1831;SDS011;1680;48.106;11.708;2023-11-19T14:51:58;1.07;;;0.97;;
1831;SDS011;1680;48.106;11.708;2023-11-19T14:54:26;1.20;;;1.10;;
1831;SDS011;1680;48.106;11.708;2023-11-19T14:56:54;1.20;;;1.10;;
1831;SDS011;1680;48.106;11.708;2023-11-19T14:59:21;0.83;;;0.83;;
1831;SDS011;1680;48.106;11.708;2023-11-19T15:01:48;1.10;;;1.00;;
1831;SDS011;1680;48.106;11.708;2023-11-19T15:04:15;1.23;;;1.03;;
1831;SDS011;1680;48.106;11.708;2023-11-19T15:06:42;0.97;;;0.90;;
1831;SDS011;1680;48.106;11.708;2023-11-19T15:09:10;1.40;;;1.30;;
1831;SDS011;1680;48.106;11.708;2023-11-19T15:11:42;1.13;;;1.00;;
1831;SDS011;1680;48.106;11.708;2023-11-19T15:14:11;1.40;;;1.20;;
1831;SDS011;1680;48.106;11.708;2023-11-19T15:16:40;1.37;;;1.27;;
1831;SDS011;1680;48.106;11.708;2023-11-19T15:19:07;1.03;;;1.00;;
1831;SDS011;1680;48.106;11.708;2023-11-19T15:21:34;1.47;;;0.90;;